createdAt,value
2022-08-08T00:00:52.539Z,13.05
2022-08-08T00:03:32.499Z,13.00
2022-08-08T00:06:46.362Z,12.96
2022-08-08T00:09:45.884Z,12.91
2022-08-08T00:12:48.392Z,12.81
2022-08-08T00:15:57.238Z,12.78
2022-08-08T00:19:03.985Z,12.72
2022-08-08T00:21:55.214Z,12.69
2022-08-08T00:24:48.695Z,12.64
2022-08-08T00:27:42.302Z,12.42
2022-08-08T00:30:32.116Z,12.56
2022-08-08T00:34:17.303Z,12.48
2022-08-08T00:37:03.468Z,12.45
2022-08-08T00:41:10.899Z,12.29
2022-08-08T00:43:58.928Z,12.35
2022-08-08T00:47:19.353Z,11.93
2022-08-08T00:50:07.145Z,11.90
2022-08-08T00:53:21.737Z,12.20
2022-08-08T00:56:30.004Z,12.12
2022-08-08T00:59:44.750Z,12.07
2022-08-08T01:04:01.119Z,12.01
2022-08-08T01:06:44.360Z,11.95
2022-08-08T01:09:59.646Z,11.88
2022-08-08T01:13:09.500Z,11.81
2022-08-08T01:16:39.990Z,11.74
2022-08-08T01:20:17.593Z,11.69
2022-08-08T01:24:05.358Z,11.62
2022-08-08T01:27:24.207Z,11.56
2022-08-08T01:30:45.849Z,11.52
2022-08-08T01:34:01.128Z,11.47
2022-08-08T01:37:13.662Z,11.40
2022-08-08T01:40:20.094Z,11.38
2022-08-08T01:43:18.334Z,11.34
2022-08-08T01:46:40.712Z,11.27
2022-08-08T01:49:38.892Z,11.22
2022-08-08T01:54:29.651Z,11.05
2022-08-08T01:56:37.400Z,11.10
2022-08-08T02:00:01.583Z,11.08
2022-08-08T02:03:55.043Z,11.03
2022-08-08T02:07:01.239Z,11.00
2022-08-08T02:10:29.867Z,10.95
2022-08-08T02:13:54.748Z,10.85
2022-08-08T02:17:10.659Z,10.87
2022-08-08T02:21:02.498Z,10.83
2022-08-08T02:23:41.308Z,10.80
2022-08-08T02:26:37.857Z,10.74
2022-08-08T02:29:55.010Z,10.73
2022-08-08T02:33:05.228Z,10.71
2022-08-08T02:36:16.485Z,10.51
2022-08-08T02:39:41.289Z,10.65
2022-08-08T02:43:23.332Z,10.61
2022-08-08T02:46:50.538Z,10.58
2022-08-08T02:50:06.439Z,10.55
2022-08-08T02:53:24.112Z,10.53
2022-08-08T02:57:05.058Z,10.46
2022-08-08T03:00:31.377Z,10.16
2022-08-08T03:05:02.373Z,10.48
2022-08-08T03:07:58.826Z,10.48
2022-08-08T03:11:47.647Z,10.46
2022-08-08T03:16:01.577Z,10.46
2022-08-08T03:18:52.264Z,10.46
2022-08-08T03:21:54.590Z,10.48
2022-08-08T03:24:47.806Z,10.43
2022-08-08T03:27:57.043Z,10.50
2022-08-08T03:30:49.158Z,10.52
2022-08-08T03:34:00.737Z,10.52
2022-08-08T03:36:50.542Z,10.42
2022-08-08T03:39:52.058Z,10.48
2022-08-08T03:42:47.773Z,10.57
2022-08-08T03:46:05.194Z,10.58
2022-08-08T03:49:31.144Z,10.61
2022-08-08T03:52:00.228Z,10.53
2022-08-08T03:55:02.222Z,10.51
2022-08-08T03:58:30.143Z,10.64
2022-08-08T04:01:24.448Z,10.59
2022-08-08T04:04:15.561Z,10.68
2022-08-08T04:07:16.580Z,10.69
2022-08-08T04:10:16.769Z,10.70
2022-08-08T04:13:17.215Z,10.74
2022-08-08T04:16:08.410Z,10.77
2022-08-08T04:19:02.430Z,10.80
2022-08-08T04:21:50.539Z,10.45
2022-08-08T04:24:37.706Z,10.85
2022-08-08T04:28:01.543Z,10.76
2022-08-08T04:30:44.317Z,10.91
2022-08-08T04:33:41.582Z,10.94
2022-08-08T04:36:30.236Z,10.98
2022-08-08T04:40:03.573Z,10.97
2022-08-08T04:42:25.971Z,10.99
2022-08-08T04:45:13.557Z,11.09
2022-08-08T04:48:01.214Z,11.02
2022-08-08T04:50:52.061Z,11.22
2022-08-08T04:54:27.629Z,11.26
2022-08-08T04:56:51.451Z,11.21
2022-08-08T04:59:42.031Z,11.36
2022-08-08T05:02:31.604Z,11.40
2022-08-08T05:05:44.630Z,11.46
2022-08-08T05:08:28.768Z,11.49
2022-08-08T05:11:24.088Z,11.55
2022-08-08T05:14:20.660Z,11.65
2022-08-08T05:17:13.266Z,11.72
2022-08-08T05:20:09.883Z,11.77
2022-08-08T05:23:02.000Z,11.70
2022-08-08T05:25:52.174Z,11.90
2022-08-08T05:28:55.737Z,11.95
2022-08-08T05:32:03.392Z,12.03
2022-08-08T05:35:04.641Z,12.05
2022-08-08T05:37:58.842Z,12.17
2022-08-08T05:40:59.575Z,12.24
2022-08-08T05:44:03.665Z,12.30
2022-08-08T05:46:54.972Z,12.39
2022-08-08T05:49:54.338Z,12.37
2022-08-08T05:52:35.499Z,12.54
2022-08-08T05:55:10.132Z,12.60
2022-08-08T05:58:04.465Z,12.68
2022-08-08T06:00:34.182Z,12.38
2022-08-08T06:03:17.438Z,12.82
2022-08-08T06:06:01.324Z,12.88
2022-08-08T06:08:53.125Z,12.88
2022-08-08T06:11:28.002Z,12.74
2022-08-08T06:13:56.168Z,13.09
2022-08-08T06:16:27.196Z,13.15
2022-08-08T06:19:15.885Z,13.21
2022-08-08T06:21:56.849Z,13.16
2022-08-08T06:24:37.216Z,13.38
2022-08-08T06:27:10.850Z,13.21
2022-08-08T06:30:00.028Z,13.53
2022-08-08T06:32:32.377Z,13.61
2022-08-08T06:36:00.683Z,13.59
2022-08-08T06:38:28.846Z,13.74
2022-08-08T06:41:26.260Z,13.79
2022-08-08T06:44:25.430Z,13.89
2022-08-08T06:47:22.129Z,13.97
2022-08-08T06:50:12.913Z,14.02
2022-08-08T06:53:14.135Z,13.89
2022-08-08T06:56:07.509Z,13.80
2022-08-08T06:58:56.254Z,14.22
2022-08-08T07:02:27.679Z,14.29
2022-08-08T07:05:20.316Z,14.36
2022-08-08T07:08:13.284Z,14.41
2022-08-08T07:11:22.413Z,14.45
2022-08-08T07:14:19.865Z,14.51
2022-08-08T07:17:31.712Z,14.61
2022-08-08T07:20:28.390Z,14.68
2022-08-08T07:23:23.746Z,14.74
2022-08-08T07:26:21.614Z,14.80
2022-08-08T07:29:20.450Z,14.85
2022-08-08T07:32:08.599Z,14.90
2022-08-08T07:34:48.439Z,14.83
2022-08-08T07:37:26.581Z,14.78
2022-08-08T07:40:28.772Z,15.03
2022-08-08T07:42:57.617Z,14.93
2022-08-08T07:45:34.530Z,14.87
2022-08-08T07:48:05.262Z,15.22
2022-08-08T07:50:37.926Z,15.17
2022-08-08T07:53:24.145Z,15.31
2022-08-08T07:56:10.921Z,15.39
2022-08-08T07:58:45.301Z,15.36
2022-08-08T08:02:36.849Z,15.51
2022-08-08T08:04:53.743Z,15.24
2022-08-08T08:07:52.838Z,15.38
2022-08-08T08:10:49.210Z,15.46
2022-08-08T08:14:07.996Z,15.74
2022-08-08T08:17:02.247Z,15.80
2022-08-08T08:19:55.716Z,15.85
2022-08-08T08:22:43.926Z,15.90
2022-08-08T08:25:40.914Z,15.87
2022-08-08T08:28:33.041Z,15.65
2022-08-08T08:31:25.331Z,16.06
2022-08-08T08:34:13.378Z,16.11
2022-08-08T08:37:08.060Z,16.20
2022-08-08T08:40:00.918Z,16.26
2022-08-08T08:42:55.187Z,16.35
2022-08-08T08:45:26.405Z,16.25
2022-08-08T08:48:01.067Z,16.51
2022-08-08T08:50:35.042Z,16.55
2022-08-08T08:53:27.374Z,16.58
2022-08-08T08:56:08.573Z,16.65
2022-08-08T08:58:50.090Z,16.71
2022-08-08T09:01:45.614Z,16.72
2022-08-08T09:04:31.697Z,16.78
2022-08-08T09:07:13.620Z,16.81
2022-08-08T09:09:55.225Z,16.90
2022-08-08T09:12:34.777Z,16.99
2022-08-08T09:15:06.214Z,17.06
2022-08-08T09:17:41.952Z,17.10
2022-08-08T09:21:56.516Z,17.18
2022-08-08T09:23:40.653Z,17.25
2022-08-08T09:26:53.909Z,17.30
2022-08-08T09:29:52.486Z,17.40
2022-08-08T09:33:55.493Z,17.52
2022-08-08T09:36:06.886Z,17.67
2022-08-08T09:39:19.015Z,17.84
2022-08-08T09:42:22.951Z,18.03
2022-08-08T09:45:55.012Z,18.14
2022-08-08T09:48:39.136Z,18.33
2022-08-08T09:51:30.404Z,18.45
2022-08-08T09:54:39.732Z,18.67
2022-08-08T09:57:34.980Z,18.90
2022-08-08T10:00:53.469Z,19.20
2022-08-08T10:03:55.755Z,19.41
2022-08-08T10:06:45.053Z,19.54
2022-08-08T10:09:32.496Z,19.59
2022-08-08T10:12:53.742Z,19.71
2022-08-08T10:16:01.161Z,19.81
2022-08-08T10:18:34.086Z,19.95
2022-08-08T10:21:23.285Z,20.05
2022-08-08T10:23:57.907Z,20.14
2022-08-08T10:26:58.751Z,20.46
2022-08-08T10:29:25.047Z,20.61
2022-08-08T10:32:16.773Z,20.75
2022-08-08T10:34:58.538Z,20.92
2022-08-08T10:37:30.227Z,21.08
2022-08-08T10:39:59.195Z,21.18
2022-08-08T10:42:34.787Z,21.28
2022-08-08T10:45:08.011Z,21.36
2022-08-08T10:47:44.076Z,21.48
2022-08-08T10:50:16.059Z,21.60
2022-08-08T10:53:04.760Z,21.58
2022-08-08T10:55:56.224Z,21.73
2022-08-08T10:58:54.820Z,21.84
2022-08-08T11:01:42.083Z,21.93
2022-08-08T11:04:39.071Z,22.00
2022-08-08T11:08:30.002Z,22.06
2022-08-08T11:10:43.291Z,22.12
2022-08-08T11:13:28.441Z,22.10
2022-08-08T11:16:01.190Z,22.06
2022-08-08T11:18:36.329Z,22.26
2022-08-08T11:21:10.533Z,22.23
2022-08-08T11:24:02.415Z,22.61
2022-08-08T11:26:31.627Z,22.79
2022-08-08T11:29:22.903Z,22.96
2022-08-08T11:32:19.860Z,23.21
2022-08-08T11:35:27.243Z,23.44
2022-08-08T11:38:35.763Z,23.60
2022-08-08T11:41:28.001Z,23.80
2022-08-08T11:44:29.075Z,23.75
2022-08-08T11:47:17.181Z,24.14
2022-08-08T11:50:05.503Z,24.37
2022-08-08T11:52:43.366Z,24.46
2022-08-08T11:55:28.847Z,24.43
2022-08-08T11:58:14.642Z,24.49
2022-08-08T12:00:52.136Z,24.55
2022-08-08T12:03:21.265Z,24.62
2022-08-08T12:05:49.591Z,24.66
2022-08-08T12:08:18.269Z,24.69
2022-08-08T12:10:49.831Z,24.72
2022-08-08T12:13:33.485Z,24.75
2022-08-08T12:16:18.680Z,24.74
2022-08-08T12:18:54.328Z,24.81
2022-08-08T12:21:25.791Z,24.88
2022-08-08T12:24:16.745Z,24.79
2022-08-08T12:26:44.107Z,24.89
2022-08-08T12:29:42.446Z,24.76
2022-08-08T12:32:20.750Z,24.62
2022-08-08T12:35:13.214Z,24.54
2022-08-08T12:38:01.048Z,24.37
2022-08-08T12:40:54.415Z,24.24
2022-08-08T12:43:47.695Z,24.13
2022-08-08T12:46:25.364Z,24.06
2022-08-08T12:51:59.248Z,24.16
2022-08-08T12:54:35.755Z,24.20
2022-08-08T12:57:32.753Z,24.23
2022-08-08T13:00:33.867Z,24.06
2022-08-08T13:03:07.507Z,24.09
2022-08-08T13:06:03.917Z,23.92
2022-08-08T13:08:22.126Z,23.81
2022-08-08T13:11:14.113Z,23.65
2022-08-08T13:14:01.181Z,23.55
2022-08-08T13:16:49.192Z,23.50
2022-08-08T13:19:49.779Z,23.38
2022-08-08T13:22:38.661Z,23.26
2022-08-08T13:25:33.006Z,23.18
2022-08-08T13:28:19.941Z,23.04
2022-08-08T13:31:11.639Z,22.97
2022-08-08T13:33:59.452Z,22.86
2022-08-08T13:36:53.843Z,22.75
2022-08-08T13:39:43.688Z,22.52
2022-08-08T13:42:37.538Z,22.58
2022-08-08T13:45:26.405Z,22.54
2022-08-08T13:48:25.961Z,22.54
2022-08-08T13:51:34.027Z,22.54
2022-08-08T13:54:20.437Z,22.52
2022-08-08T13:57:19.257Z,22.52
2022-08-08T14:00:11.856Z,22.37
2022-08-08T14:02:42.083Z,22.30
2022-08-08T14:05:21.772Z,22.22
2022-08-08T14:07:53.194Z,22.09
2022-08-08T14:10:33.761Z,22.09
2022-08-08T14:13:31.252Z,22.03
2022-08-08T14:16:04.450Z,21.86
2022-08-08T14:18:36.459Z,21.89
2022-08-08T14:21:20.950Z,21.82
2022-08-08T14:24:03.815Z,21.71
2022-08-08T14:26:41.692Z,21.47
2022-08-08T14:29:28.513Z,21.57
2022-08-08T14:32:10.003Z,21.50
2022-08-08T14:34:42.304Z,21.40
2022-08-08T14:37:13.273Z,21.39
2022-08-08T14:40:09.034Z,21.36
2022-08-08T14:43:01.766Z,21.27
2022-08-08T14:46:09.499Z,21.17
2022-08-08T14:49:09.428Z,21.11
2022-08-08T14:52:08.055Z,21.04
2022-08-08T14:55:06.304Z,20.92
2022-08-08T14:58:02.554Z,20.84
2022-08-08T15:00:52.762Z,20.57
2022-08-08T15:03:45.076Z,20.73
2022-08-08T15:06:42.650Z,20.73
2022-08-08T15:09:31.404Z,20.72
2022-08-08T15:12:34.739Z,20.71
2022-08-08T15:16:03.254Z,20.48
2022-08-08T15:18:30.058Z,20.54
2022-08-08T15:21:17.221Z,20.45
2022-08-08T15:24:04.219Z,20.38
2022-08-08T15:26:56.018Z,20.21
2022-08-08T15:29:43.915Z,20.26
2022-08-08T15:32:32.155Z,20.27
2022-08-08T15:35:20.425Z,20.09
2022-08-08T15:38:12.848Z,20.18
2022-08-08T15:41:00.734Z,20.18
2022-08-08T15:44:00.853Z,20.20
2022-08-08T15:46:34.726Z,20.26
2022-08-08T15:49:04.107Z,20.24
2022-08-08T15:51:33.412Z,20.40
2022-08-08T15:54:01.253Z,20.46
2022-08-08T15:56:28.484Z,20.53
2022-08-08T15:58:55.570Z,20.59
2022-08-08T16:01:22.761Z,20.63
2022-08-08T16:03:51.581Z,20.62
2022-08-08T16:06:28.368Z,20.80
2022-08-08T16:13:00.290Z,20.87
2022-08-08T16:13:03.268Z,20.63
2022-08-08T16:14:33.851Z,21.01
2022-08-08T16:17:01.356Z,21.06
2022-08-08T16:19:30.325Z,20.92
2022-08-08T16:22:29.842Z,21.09
2022-08-08T16:24:58.661Z,21.25
2022-08-08T16:27:25.621Z,21.30
2022-08-08T16:30:13.587Z,21.36
2022-08-08T16:32:42.036Z,21.37
2022-08-08T16:35:09.804Z,21.43
2022-08-08T16:37:40.423Z,21.48
2022-08-08T16:40:17.398Z,21.49
2022-08-08T16:42:46.668Z,21.54
2022-08-08T16:46:42.819Z,21.56
2022-08-08T16:48:46.288Z,21.52
2022-08-08T16:55:06.008Z,21.64
2022-08-08T16:55:20.752Z,21.70
2022-08-08T16:58:15.396Z,21.75
2022-08-08T17:00:58.840Z,21.76
2022-08-08T17:03:57.912Z,21.70
2022-08-08T17:06:46.981Z,21.59
2022-08-08T17:09:34.881Z,21.62
2022-08-08T17:12:32.234Z,21.42
2022-08-08T17:15:20.745Z,21.20
2022-08-08T17:18:13.387Z,21.27
2022-08-08T17:21:02.995Z,21.15
2022-08-08T17:24:00.596Z,21.20
2022-08-08T17:26:50.801Z,21.21
2022-08-08T17:29:43.399Z,21.11
2022-08-08T17:34:36.276Z,20.99
2022-08-08T17:35:56.839Z,20.90
2022-08-08T17:38:55.746Z,20.51
2022-08-08T17:41:58.577Z,20.78
2022-08-08T17:44:29.757Z,20.69
2022-08-08T17:47:37.571Z,20.66
2022-08-08T17:50:26.601Z,20.56
2022-08-08T17:53:13.950Z,20.47
2022-08-08T17:56:07.097Z,20.38
2022-08-08T17:58:55.834Z,20.26
2022-08-08T18:01:32.113Z,20.14
2022-08-08T18:04:09.969Z,20.03
2022-08-08T18:06:47.184Z,19.94
2022-08-08T18:09:37.946Z,19.81
2022-08-08T18:12:26.453Z,19.75
2022-08-08T18:14:58.009Z,19.68
2022-08-08T18:17:28.696Z,19.58
2022-08-08T18:20:43.342Z,19.52
2022-08-08T18:23:02.240Z,19.43
2022-08-08T18:25:37.277Z,19.35
2022-08-08T18:28:04.962Z,19.25
2022-08-08T18:30:33.995Z,19.22
2022-08-08T18:33:02.405Z,19.16
2022-08-08T18:35:41.855Z,19.00
2022-08-08T18:38:17.001Z,18.92
2022-08-08T18:40:46.774Z,18.82
2022-08-08T18:43:16.603Z,18.52
2022-08-08T18:46:00.375Z,18.65
2022-08-08T18:48:31.922Z,18.59
2022-08-08T18:51:00.057Z,18.51
2022-08-08T18:54:03.263Z,18.46
2022-08-08T18:56:54.540Z,18.34
2022-08-08T18:59:41.586Z,18.30
2022-08-08T19:02:29.888Z,18.16
2022-08-08T19:05:17.061Z,18.00
2022-08-08T19:08:04.431Z,18.06
2022-08-08T19:10:51.389Z,17.88
2022-08-08T19:13:56.516Z,17.78
2022-08-08T19:16:44.042Z,17.81
2022-08-08T19:19:31.030Z,17.72
2022-08-08T19:22:21.668Z,17.64
2022-08-08T19:26:01.473Z,17.52
2022-08-08T19:28:20.289Z,17.51
2022-08-08T19:31:09.388Z,17.15
2022-08-08T19:34:04.966Z,17.37
2022-08-08T19:37:03.844Z,17.29
2022-08-08T19:39:51.255Z,17.21
2022-08-08T19:42:38.343Z,17.14
2022-08-08T19:45:58.449Z,17.06
2022-08-08T19:48:35.084Z,17.04
2022-08-08T19:51:25.043Z,16.93
2022-08-08T19:54:22.121Z,16.72
2022-08-08T19:57:09.064Z,16.90
2022-08-08T19:59:57.244Z,16.83
2022-08-08T20:02:44.215Z,16.79
2022-08-08T20:06:14.086Z,16.74
2022-08-08T20:08:48.539Z,16.67
2022-08-08T20:11:36.029Z,16.39
2022-08-08T20:14:34.461Z,16.56
2022-08-08T20:17:27.001Z,16.50
2022-08-08T20:20:15.993Z,16.42
2022-08-08T20:23:12.433Z,16.37
2022-08-08T20:26:03.087Z,16.32
2022-08-08T20:28:50.985Z,16.28
2022-08-08T20:32:02.918Z,16.25
2022-08-08T20:34:47.804Z,16.16
2022-08-08T20:37:53.058Z,15.89
2022-08-08T20:40:40.845Z,15.99
2022-08-08T20:43:44.106Z,16.04
2022-08-08T20:46:35.518Z,15.83
2022-08-08T20:49:25.252Z,15.93
2022-08-08T20:52:27.240Z,15.89
2022-08-08T20:55:22.925Z,15.85
2022-08-08T20:58:13.680Z,15.81
2022-08-08T21:01:07.537Z,15.79
2022-08-08T21:04:06.626Z,15.75
2022-08-08T21:06:54.503Z,15.70
2022-08-08T21:10:02.352Z,15.62
2022-08-08T21:12:54.479Z,15.62
2022-08-08T21:16:05.373Z,15.56
2022-08-08T21:18:49.514Z,15.44
2022-08-08T21:21:41.153Z,15.44
2022-08-08T21:24:22.308Z,15.45
2022-08-08T21:26:54.423Z,15.38
2022-08-08T21:30:04.478Z,15.18
2022-08-08T21:32:14.236Z,15.33
2022-08-08T21:34:49.658Z,15.28
2022-08-08T21:37:19.118Z,15.24
2022-08-08T21:39:56.230Z,15.21
2022-08-08T21:42:24.490Z,15.16
2022-08-08T21:44:58.970Z,15.12
2022-08-08T21:48:21.281Z,15.07
2022-08-08T21:50:15.374Z,15.00
2022-08-08T21:54:31.742Z,14.96
2022-08-08T21:56:20.003Z,14.90
2022-08-08T21:58:17.820Z,14.86
2022-08-08T22:00:44.784Z,14.81
2022-08-08T22:03:17.719Z,14.77
2022-08-08T22:05:45.812Z,14.71
2022-08-08T22:08:15.755Z,14.65
2022-08-08T22:10:53.996Z,14.62
2022-08-08T22:13:22.547Z,14.58
2022-08-08T22:15:59.066Z,14.54
2022-08-08T22:18:32.839Z,14.50
2022-08-08T22:21:14.032Z,14.48
2022-08-08T22:23:50.271Z,14.43
2022-08-08T22:26:29.568Z,14.19
2022-08-08T22:29:15.044Z,14.34
2022-08-08T22:31:58.186Z,14.25
2022-08-08T22:34:31.830Z,14.03
2022-08-08T22:36:59.567Z,14.16
2022-08-08T22:39:28.293Z,14.14
2022-08-08T22:42:27.002Z,14.09
2022-08-08T22:44:58.621Z,14.04
2022-08-08T22:47:37.600Z,14.01
2022-08-08T22:50:09.701Z,13.95
2022-08-08T22:54:23.788Z,13.93
2022-08-08T22:55:58.221Z,13.84
2022-08-08T22:58:29.171Z,13.87
2022-08-08T23:00:59.821Z,13.68
2022-08-08T23:03:53.809Z,13.78
2022-08-08T23:06:16.709Z,13.71
2022-08-08T23:08:54.626Z,13.41
2022-08-08T23:11:31.451Z,13.58
2022-08-08T23:14:12.188Z,13.45
2022-08-08T23:16:46.988Z,13.54
2022-08-08T23:19:21.619Z,13.54
2022-08-08T23:21:48.906Z,13.50
2022-08-08T23:24:23.023Z,13.37
2022-08-08T23:26:55.508Z,13.44
2022-08-08T23:29:25.546Z,13.41
2022-08-08T23:31:53.356Z,13.29
2022-08-08T23:34:21.357Z,13.36
2022-08-08T23:36:56.921Z,13.32
2022-08-08T23:39:26.520Z,13.27
2022-08-08T23:42:05.755Z,13.21
2022-08-08T23:44:39.328Z,13.05
2022-08-08T23:49:00.663Z,13.11
2022-08-08T23:50:01.066Z,12.56
2022-08-08T23:52:31.000Z,12.90
2022-08-08T23:55:07.224Z,12.91
2022-08-08T23:57:52.587Z,12.92
